createdAt,value
2017-12-15T00:00:06.254Z,6
2017-12-15T00:15:05.737Z,6.9
2017-12-15T00:30:04.912Z,6.3
2017-12-15T00:45:07.480Z,5.9
2017-12-15T01:00:06.064Z,7
2017-12-15T01:15:07.657Z,7.2
2017-12-15T01:30:04.378Z,7.9
2017-12-15T01:45:04.773Z,8.1
2017-12-15T02:00:04.683Z,7.9
2017-12-15T02:15:04.960Z,7.8
2017-12-15T02:30:05.377Z,7.2
2017-12-15T02:45:04.549Z,7.4
2017-12-15T03:00:04.485Z,7.4
2017-12-15T03:15:08.364Z,6.5
2017-12-15T03:30:04.623Z,6.2
2017-12-15T03:45:05.952Z,6.7
2017-12-15T04:00:04.867Z,6.3
2017-12-15T04:15:07.471Z,6.6
2017-12-15T04:30:05.338Z,7.4
2017-12-15T04:45:07.825Z,6.3
2017-12-15T05:00:04.930Z,6.3
2017-12-15T05:15:05.009Z,6
2017-12-15T05:30:05.418Z,6.1
2017-12-15T05:45:04.451Z,5.7
2017-12-15T06:00:04.376Z,6.3
2017-12-15T06:15:04.833Z,6.4
2017-12-15T06:30:04.456Z,6.6
2017-12-15T06:45:04.335Z,5.8
2017-12-15T07:00:05.795Z,6.6
2017-12-15T07:15:07.791Z,6.4
2017-12-15T07:30:04.903Z,6.8
2017-12-15T07:45:04.443Z,7.1
2017-12-15T08:00:05.324Z,6.4
2017-12-15T08:15:04.768Z,6
2017-12-15T08:30:04.500Z,6.1
2017-12-15T08:45:05.029Z,6.1
2017-12-15T09:00:04.477Z,7.3
2017-12-15T09:15:04.898Z,7.4
2017-12-15T09:30:05.735Z,7.7
2017-12-15T09:45:05.646Z,6.9
2017-12-15T10:00:04.617Z,6.7
2017-12-15T10:15:06.113Z,6.5
2017-12-15T10:30:04.751Z,6.6
2017-12-15T10:45:04.907Z,6.6
2017-12-15T11:00:04.289Z,7
2017-12-15T11:15:04.714Z,7.3
2017-12-15T11:30:07.510Z,7.5
2017-12-15T11:45:04.836Z,7.2
2017-12-15T12:00:05.144Z,7.6
2017-12-15T12:15:06.137Z,7.8
2017-12-15T12:30:04.731Z,7.9
2017-12-15T12:45:04.644Z,7.8
2017-12-15T13:00:05.113Z,7.9
2017-12-15T13:15:12.193Z,7.7
2017-12-15T13:30:10.402Z,7.6
2017-12-15T13:45:07.294Z,7.5
2017-12-15T14:00:04.693Z,7.6
2017-12-15T14:15:04.667Z,7.8
2017-12-15T14:30:04.340Z,8.4
2017-12-15T14:45:04.223Z,9.2
2017-12-15T15:00:04.644Z,9.2
2017-12-15T15:15:05.131Z,10
2017-12-15T15:30:07.803Z,9.8
2017-12-15T15:45:05.724Z,9.4
2017-12-15T16:00:05.092Z,9.6
2017-12-15T16:15:07.569Z,9.8
2017-12-15T16:30:07.683Z,9.5
2017-12-15T16:45:04.524Z,9.3
2017-12-15T17:00:05.034Z,9.6
2017-12-15T17:15:04.542Z,9.4
2017-12-15T17:30:05.145Z,8.9
2017-12-15T17:45:05.040Z,9
2017-12-15T18:00:04.405Z,8.7
2017-12-15T18:15:05.879Z,8.7
2017-12-15T18:30:07.738Z,8.6
2017-12-15T18:45:05.120Z,8.7
2017-12-15T19:00:08.362Z,9
2017-12-15T19:15:04.870Z,8.6
2017-12-15T19:30:04.993Z,8.6
2017-12-15T19:45:04.896Z,8.5
2017-12-15T20:00:07.475Z,8.5
2017-12-15T20:15:04.857Z,7.5
2017-12-15T20:30:04.932Z,7.9
2017-12-15T20:45:04.370Z,8
2017-12-15T21:00:04.863Z,8.6
2017-12-15T21:15:04.851Z,8.3
2017-12-15T21:30:04.992Z,7.5
2017-12-15T21:45:05.393Z,7.9
2017-12-15T22:00:04.260Z,8
2017-12-15T22:15:04.756Z,7.7
2017-12-15T22:30:04.399Z,8
2017-12-15T22:45:05.839Z,8.2
2017-12-15T23:00:04.413Z,8
2017-12-15T23:15:04.369Z,7.8
2017-12-15T23:30:05.846Z,7.5
2017-12-15T23:45:08.062Z,8.2
